Time;durP1;ratioP1;P1;durP2;ratioP2;P2;SDS_P1;SDS_P2;PMS_P1;PMS_P2;Temp;Humidity;BMP_temperature;BMP_pressure;BME280_temperature;BME280_humidity;BME280_pressure;Samples;Min_cycle;Max_cycle;Signal;HPM_P1;HPM_P2
2023/06/18 00:00:23;;;;;;;13.50;12.00;;;;;;;24.09;50.66;100067.45;105317;1255;61117;-56
2023/06/18 00:02:50;;;;;;;14.60;11.80;;;;;;;24.03;50.04;100065.42;107191;1253;63900;-57
2023/06/18 00:05:18;;;;;;;15.80;11.80;;;;;;;23.99;49.62;100065.47;105344;1257;61095;-55
2023/06/18 00:07:46;;;;;;;13.40;12.00;;;;;;;23.95;49.32;100061.29;105344;1258;60457;-56
2023/06/18 00:10:13;;;;;;;14.00;12.40;;;;;;;23.90;49.53;100059.48;105484;1257;64920;-55
2023/06/18 00:12:41;;;;;;;14.50;12.80;;;;;;;23.88;49.75;100058.05;105345;1253;61415;-55
2023/06/18 00:15:09;;;;;;;14.80;12.30;;;;;;;23.87;50.05;100057.73;105305;1257;62687;-54
2023/06/18 00:17:37;;;;;;;14.30;12.60;;;;;;;23.85;50.33;100055.30;105395;1254;61414;-55
2023/06/18 00:20:05;;;;;;;20.20;12.30;;;;;;;23.83;50.40;100062.57;105286;1253;60429;-55
2023/06/18 00:22:37;;;;;;;15.00;12.60;;;;;;;23.82;50.60;100060.09;105286;1254;63713;-55
2023/06/18 00:25:06;;;;;;;17.30;12.00;;;;;;;23.81;51.02;100056.40;105455;1253;61339;-56
2023/06/18 00:27:33;;;;;;;14.90;13.30;;;;;;;23.81;51.39;100056.70;105555;1257;62421;-55
2023/06/18 00:30:01;;;;;;;21.20;13.10;;;;;;;23.81;51.33;100057.23;105412;1253;60441;-55
2023/06/18 00:32:28;;;;;;;14.10;12.50;;;;;;;23.80;51.43;100054.41;105278;1253;61043;-56
2023/06/18 00:34:56;;;;;;;16.40;12.70;;;;;;;23.79;51.52;100058.31;106571;1253;63735;-55
2023/06/18 00:37:25;;;;;;;16.00;13.10;;;;;;;23.77;51.71;100056.39;105343;1253;61335;-55
2023/06/18 00:39:54;;;;;;;14.90;13.30;;;;;;;23.76;51.87;100056.89;105296;1253;64828;-55
2023/06/18 00:42:22;;;;;;;14.70;12.50;;;;;;;23.73;51.35;100056.52;105473;1253;62017;-55
2023/06/18 00:44:50;;;;;;;15.70;13.90;;;;;;;23.70;51.17;100054.45;105371;1253;60649;-57
2023/06/18 00:47:19;;;;;;;15.80;13.00;;;;;;;23.69;50.85;100056.82;105554;1254;64921;-55
2023/06/18 00:49:47;;;;;;;14.00;12.50;;;;;;;23.67;50.16;100054.63;105930;1254;61564;-54
2023/06/18 00:52:15;;;;;;;19.70;13.10;;;;;;;23.65;50.17;100055.84;105313;1257;62486;-54
2023/06/18 00:54:44;;;;;;;13.90;12.40;;;;;;;23.62;49.99;100056.98;105462;1257;60476;-54
2023/06/18 00:57:17;;;;;;;14.30;12.90;;;;;;;23.60;50.06;100055.05;105442;1253;336826;-55
2023/06/18 01:02:53;;;;;;;15.00;13.50;;;;;;;23.33;50.46;100057.20;103049;1291;606489;-55
2023/06/18 01:05:20;;;;;;;13.60;12.20;;;;;;;23.59;49.51;100055.67;104607;1269;59378;-56
2023/06/18 01:07:48;;;;;;;13.90;12.20;;;;;;;23.61;49.18;100055.99;104406;1267;59386;-56
2023/06/18 01:10:16;;;;;;;16.90;12.80;;;;;;;23.61;49.26;100054.80;104729;1271;63534;-56
2023/06/18 01:12:46;;;;;;;15.40;13.20;;;;;;;23.60;49.27;100059.14;104472;1266;61764;-57
2023/06/18 01:15:12;;;;;;;13.90;12.40;;;;;;;23.60;49.98;100059.18;104464;1264;199188;-57
2023/06/18 01:17:40;;;;;;;14.80;12.00;;;;;;;23.59;49.91;100057.58;104484;1264;59360;-54
2023/06/18 01:20:10;;;;;;;15.20;13.50;;;;;;;23.59;50.08;100060.42;104657;1264;59305;-55
2023/06/18 01:22:44;;;;;;;14.80;13.00;;;;;;;23.59;50.29;100063.14;104540;1270;63526;-55
2023/06/18 01:25:11;;;;;;;14.70;13.20;;;;;;;23.58;50.52;100064.27;104844;1266;61698;-54
2023/06/18 01:27:41;;;;;;;14.20;12.70;;;;;;;23.57;50.71;100064.46;104523;1264;63791;-55
2023/06/18 01:30:11;;;;;;;14.30;12.60;;;;;;;23.56;51.26;100067.39;105562;1261;59634;-57
2023/06/18 01:32:38;;;;;;;16.50;13.00;;;;;;;23.56;51.68;100067.63;104877;1260;63454;-55
2023/06/18 01:35:06;;;;;;;14.40;12.90;;;;;;;23.54;51.96;100062.96;104767;1264;64472;-54
2023/06/18 01:37:46;;;;;;;16.00;11.80;;;;;;;23.53;52.06;100061.48;104965;1263;62212;-55
2023/06/18 01:40:19;;;;;;;14.30;11.90;;;;;;;23.57;51.73;100060.14;105138;1262;72118;-55
2023/06/18 01:43:12;;;;;;;16.10;13.20;;;;;;;23.62;51.31;100063.88;105546;1256;59847;-55
2023/06/18 01:45:42;;;;;;;13.00;11.70;;;;;;;23.67;51.25;100067.23;105416;1257;59669;-64
2023/06/18 01:48:09;;;;;;;15.30;12.60;;;;;;;23.70;51.11;100070.07;105335;1256;62929;-63
2023/06/18 01:50:37;;;;;;;16.60;12.20;;;;;;;23.71;51.28;100070.27;105044;1256;61489;-62
2023/06/18 01:53:04;;;;;;;14.20;11.90;;;;;;;23.71;51.53;100069.77;105236;1255;63710;-63
2023/06/18 01:55:33;;;;;;;14.60;12.90;;;;;;;23.72;51.44;100071.08;105093;1260;60382;-63
2023/06/18 01:58:51;;;;;;;16.10;12.50;;;;;;;23.71;51.59;100073.98;104920;1263;59647;-62
2023/06/18 02:01:20;;;;;;;14.10;12.40;;;;;;;23.71;51.72;100073.91;105324;1260;64331;-64
2023/06/18 02:03:47;;;;;;;13.70;12.30;;;;;;;23.68;52.06;100073.79;105413;1260;61746;-62
2023/06/18 02:06:14;;;;;;;15.20;12.80;;;;;;;23.63;52.33;100072.02;105507;1256;64153;-60
2023/06/18 02:08:41;;;;;;;14.00;12.30;;;;;;;23.60;52.81;100071.15;105214;1260;59627;-60
2023/06/18 02:11:08;;;;;;;14.50;12.80;;;;;;;23.57;52.97;100074.40;105205;1256;59750;-59
2023/06/18 02:13:35;;;;;;;13.80;12.30;;;;;;;23.56;53.14;100077.55;105336;1259;64225;-60
2023/06/18 02:16:02;;;;;;;17.00;13.10;;;;;;;23.58;53.45;100078.98;105622;1256;61599;-63
2023/06/18 02:18:31;;;;;;;15.40;11.60;;;;;;;23.60;53.80;100076.38;105597;1256;63885;-61
2023/06/18 02:20:59;;;;;;;15.80;12.00;;;;;;;23.60;54.07;100080.71;105358;1260;59666;-60
2023/06/18 02:23:27;;;;;;;13.90;12.50;;;;;;;23.57;54.27;100085.14;105533;1255;59722;-60
2023/06/18 02:25:56;;;;;;;13.20;11.80;;;;;;;23.55;54.36;100084.12;105203;1256;64396;-60
2023/06/18 02:28:24;;;;;;;15.60;11.50;;;;;;;23.54;54.49;100085.00;105551;1257;62598;-63
2023/06/18 02:30:51;;;;;;;13.20;11.60;;;;;;;23.54;54.69;100085.83;105334;1254;64011;-60
2023/06/18 02:33:19;;;;;;;13.10;11.30;;;;;;;23.52;54.73;100090.55;105327;1256;59736;-60
2023/06/18 02:35:46;;;;;;;16.40;12.30;;;;;;;23.49;54.73;100094.36;105326;1255;59757;-59
2023/06/18 02:38:14;;;;;;;15.10;11.60;;;;;;;23.47;54.87;100094.36;105485;1260;64188;-60
2023/06/18 02:40:41;;;;;;;15.00;11.00;;;;;;;23.49;54.80;100095.43;105220;1255;70618;-61
2023/06/18 02:43:08;;;;;;;13.70;11.70;;;;;;;23.53;54.96;100093.06;105717;1256;63808;-60
2023/06/18 02:45:37;;;;;;;16.30;11.50;;;;;;;23.56;55.12;100094.57;105360;1259;59708;-60
2023/06/18 02:48:04;;;;;;;13.80;11.30;;;;;;;23.60;55.31;100097.64;105302;1256;59935;-62
2023/06/18 02:50:32;;;;;;;14.00;12.30;;;;;;;23.62;55.05;100096.67;105389;1257;64297;-61
2023/06/18 02:52:59;;;;;;;13.20;10.80;;;;;;;23.62;55.18;100101.55;105317;1258;70675;-60
2023/06/18 02:55:25;;;;;;;12.60;11.20;;;;;;;23.60;55.15;100098.13;105258;1257;64111;-61
2023/06/18 02:57:52;;;;;;;15.90;12.00;;;;;;;23.59;54.99;100097.44;105263;1256;59863;-61
2023/06/18 03:00:19;;;;;;;12.70;11.40;;;;;;;23.57;54.76;100093.57;105432;1256;59747;-59
2023/06/18 03:02:47;;;;;;;11.80;10.50;;;;;;;23.56;55.16;100090.23;105359;1259;64221;-59
2023/06/18 03:05:18;;;;;;;13.10;11.20;;;;;;;23.59;55.03;100096.33;105410;1256;61482;-60
2023/06/18 03:07:45;;;;;;;13.30;10.80;;;;;;;23.63;54.54;100099.98;105544;1257;63825;-60
2023/06/18 03:10:12;;;;;;;12.90;11.10;;;;;;;23.64;54.31;100103.48;105211;1256;59544;-60
2023/06/18 03:12:40;;;;;;;13.10;10.10;;;;;;;23.65;54.08;100102.08;105395;1256;59709;-60
2023/06/18 03:15:22;;;;;;;12.40;10.80;;;;;;;23.66;53.77;100104.02;105225;1259;64540;-59
2023/06/18 03:17:49;;;;;;;14.70;12.20;;;;;;;23.66;53.33;100106.08;105246;1257;61692;-60
2023/06/18 03:20:18;;;;;;;11.40;10.20;;;;;;;23.67;53.51;100106.65;109214;1253;63787;-61
2023/06/18 03:22:46;;;;;;;17.80;11.20;;;;;;;23.69;53.28;100106.81;105943;1256;59665;-63
2023/06/18 03:25:13;;;;;;;15.00;10.60;;;;;;;23.71;52.48;100108.48;105355;1257;59666;-61
2023/06/18 03:27:41;;;;;;;16.90;12.30;;;;;;;23.73;52.40;100111.29;105466;1259;64099;-61
2023/06/18 03:30:09;;;;;;;12.50;10.80;;;;;;;23.74;52.79;100114.30;105227;1257;73379;-62
2023/06/18 03:32:36;;;;;;;13.00;10.80;;;;;;;23.74;53.05;100116.58;105174;1257;64075;-59
2023/06/18 03:35:04;;;;;;;11.80;10.60;;;;;;;23.74;52.63;100119.14;105317;1262;59679;-59
2023/06/18 03:37:31;;;;;;;12.00;10.60;;;;;;;23.73;52.24;100117.07;105245;1255;59656;-60
2023/06/18 03:39:58;;;;;;;12.00;10.80;;;;;;;23.61;52.38;100119.29;105120;1259;65101;-60
2023/06/18 03:42:25;;;;;;;14.50;10.70;;;;;;;23.53;52.10;100120.03;105288;1256;61531;-62
2023/06/18 03:44:51;;;;;;;14.20;11.00;;;;;;;23.54;51.67;100114.73;104874;1262;62803;-60
2023/06/18 03:47:19;;;;;;;14.40;11.10;;;;;;;23.56;51.26;100114.89;105090;1257;60926;-61
2023/06/18 03:49:47;;;;;;;13.30;11.30;;;;;;;23.54;51.21;100119.58;105105;1259;59627;-59
2023/06/18 03:52:13;;;;;;;13.20;11.40;;;;;;;23.52;51.34;100119.25;105025;1260;65437;-59
2023/06/18 03:54:41;;;;;;;15.10;12.20;;;;;;;23.53;51.46;100118.52;104957;1260;61564;-60
2023/06/18 03:57:08;;;;;;;12.20;10.50;;;;;;;23.52;51.56;100120.91;105257;1256;64147;-62
2023/06/18 03:59:37;;;;;;;14.10;12.10;;;;;;;23.52;51.33;100124.89;105253;1258;59702;-54
2023/06/18 04:02:04;;;;;;;12.60;11.30;;;;;;;23.52;51.11;100122.58;105292;1259;59592;-52
2023/06/18 04:04:31;;;;;;;13.00;11.50;;;;;;;23.53;51.27;100125.44;105295;1255;63176;-53
2023/06/18 04:06:58;;;;;;;13.40;11.50;;;;;;;23.54;51.27;100127.99;105310;1256;61758;-54
2023/06/18 04:09:27;;;;;;;15.20;11.20;;;;;;;23.56;51.47;100129.15;105404;1259;64109;-54
2023/06/18 04:11:54;;;;;;;13.60;12.10;;;;;;;23.58;51.68;100126.95;105308;1256;59629;-53
2023/06/18 04:14:21;;;;;;;14.00;11.80;;;;;;;23.59;51.74;100129.61;105441;1256;59657;-54
2023/06/18 04:16:48;;;;;;;12.10;10.90;;;;;;;23.59;51.53;100128.55;105287;1259;64943;-55
2023/06/18 04:19:17;;;;;;;14.20;11.90;;;;;;;23.59;51.37;100131.60;105455;1260;61526;-53
2023/06/18 04:21:43;;;;;;;12.90;11.60;;;;;;;23.60;51.55;100129.21;105359;1260;64075;-53
2023/06/18 04:24:10;;;;;;;14.90;12.60;;;;;;;23.63;51.54;100131.67;105363;1255;60856;-53
2023/06/18 04:26:37;;;;;;;12.60;11.30;;;;;;;23.66;51.02;100134.34;105369;1256;59892;-53
2023/06/18 04:29:05;;;;;;;12.10;10.90;;;;;;;23.71;50.91;100139.48;105454;1257;63193;-52
2023/06/18 04:31:31;;;;;;;13.50;12.10;;;;;;;23.74;50.47;100141.66;105377;1256;61419;-54
2023/06/18 04:33:58;;;;;;;13.90;11.80;;;;;;;23.79;50.54;100147.45;105285;1256;63892;-53
2023/06/18 04:36:25;;;;;;;12.70;11.20;;;;;;;23.84;51.05;100147.83;105425;1256;59628;-53
2023/06/18 04:38:52;;;;;;;12.30;10.90;;;;;;;23.89;50.61;100146.89;105428;1256;59656;-54
2023/06/18 04:41:19;;;;;;;13.60;11.60;;;;;;;23.96;50.16;100141.06;105486;1259;73363;-53
2023/06/18 04:43:47;;;;;;;14.90;11.90;;;;;;;24.02;50.08;100145.36;105560;1260;70719;-54
2023/06/18 04:46:14;;;;;;;13.70;11.60;;;;;;;24.07;50.11;100149.89;105456;1259;64078;-53
2023/06/18 04:48:41;;;;;;;13.40;11.50;;;;;;;24.11;49.99;100152.49;105431;1254;60892;-53
2023/06/18 04:51:09;;;;;;;14.70;11.30;;;;;;;24.15;50.23;100153.91;105593;1256;59673;-53
2023/06/18 04:53:37;;;;;;;12.90;11.30;;;;;;;24.19;50.24;100153.95;105418;1262;64220;-53
2023/06/18 04:56:04;;;;;;;13.20;11.00;;;;;;;24.24;50.17;100156.32;105468;1257;61503;-65
2023/06/18 04:58:37;;;;;;;12.30;10.90;;;;;;;24.28;50.04;100158.48;105351;1257;63918;-60
2023/06/18 05:01:04;;;;;;;12.70;11.40;;;;;;;24.33;49.89;100163.41;105295;1256;59733;-60
2023/06/18 05:03:32;;;;;;;13.70;11.20;;;;;;;24.38;49.90;100161.98;105330;1255;59663;-61
2023/06/18 05:05:59;;;;;;;13.20;11.80;;;;;;;24.44;49.50;100166.84;105364;1260;64407;-61
2023/06/18 05:08:26;;;;;;;16.60;11.70;;;;;;;24.51;49.15;100168.39;105535;1254;61551;-60
2023/06/18 05:10:53;;;;;;;13.00;11.20;;;;;;;24.57;48.85;100166.70;105462;1263;66627;-60
2023/06/18 05:13:20;;;;;;;13.80;11.60;;;;;;;24.64;48.70;100168.94;105504;1256;60485;-64
2023/06/18 05:15:48;;;;;;;13.40;11.40;;;;;;;24.73;48.52;100173.30;105326;1259;60484;-60
2023/06/18 05:18:14;;;;;;;18.90;12.10;;;;;;;24.81;48.27;100175.27;105399;1260;65197;-60
2023/06/18 05:20:42;;;;;;;18.80;13.80;;;;;;;24.90;48.14;100175.06;105777;1258;61857;-60
2023/06/18 05:23:08;;;;;;;16.20;14.10;;;;;;;25.00;47.99;100173.35;105262;1256;63708;-60
2023/06/18 05:25:37;;;;;;;16.10;13.80;;;;;;;25.06;47.61;100176.02;105283;1259;60578;-60
2023/06/18 05:28:04;;;;;;;21.90;14.10;;;;;;;25.12;47.60;100179.52;105354;1256;60566;-59
2023/06/18 05:30:33;;;;;;;17.00;13.00;;;;;;;25.19;47.37;100178.65;105351;1259;65031;-59
2023/06/18 05:33:01;;;;;;;14.80;12.50;;;;;;;25.26;47.08;100177.10;105261;1258;61557;-59
2023/06/18 05:35:27;;;;;;;15.00;12.70;;;;;;;25.34;47.04;100178.89;105193;1260;64468;-59
2023/06/18 05:37:56;;;;;;;14.70;11.90;;;;;;;25.40;46.75;100181.13;105320;1257;60450;-59
2023/06/18 05:40:23;;;;;;;15.70;13.00;;;;;;;25.46;46.55;100183.59;105492;1256;59558;-57
2023/06/18 05:42:52;;;;;;;13.60;11.60;;;;;;;25.51;46.59;100187.52;105307;1258;65070;-58
2023/06/18 05:45:19;;;;;;;13.70;12.00;;;;;;;25.59;46.31;100185.95;105411;1260;61660;-60
2023/06/18 05:47:46;;;;;;;14.50;12.60;;;;;;;25.68;46.54;100189.29;105096;1259;63817;-58
2023/06/18 05:50:19;;;;;;;13.40;12.00;;;;;;;25.77;47.00;100191.85;105156;1258;60450;-57
2023/06/18 05:52:47;;;;;;;13.30;11.40;;;;;;;25.85;46.39;100192.59;105258;1261;60462;-57
2023/06/18 05:55:14;;;;;;;14.20;12.50;;;;;;;25.91;46.03;100187.15;105343;1259;64984;-58
2023/06/18 05:57:42;;;;;;;14.60;12.30;;;;;;;26.00;46.40;100188.12;105232;1257;61814;-59
2023/06/18 06:00:11;;;;;;;14.20;12.50;;;;;;;26.09;46.23;100191.27;105751;1257;63939;-57
2023/06/18 06:02:41;;;;;;;17.50;13.10;;;;;;;26.16;46.07;100194.09;106244;1257;60384;-58
2023/06/18 06:05:13;;;;;;;13.60;12.20;;;;;;;26.21;45.94;100196.54;105406;1256;60890;-56
2023/06/18 06:07:40;;;;;;;19.30;13.60;;;;;;;26.25;46.04;100198.30;105318;1259;65171;-58
2023/06/18 06:10:09;;;;;;;14.20;12.20;;;;;;;26.27;45.86;100196.30;105380;1259;61514;-58
2023/06/18 06:12:36;;;;;;;13.20;11.80;;;;;;;26.31;45.44;100198.56;105353;1257;64103;-58
2023/06/18 06:15:04;;;;;;;13.60;10.80;;;;;;;26.36;44.92;100196.41;105391;1256;60516;-57
2023/06/18 06:17:31;;;;;;;15.40;11.60;;;;;;;26.42;44.25;100194.63;105333;1256;61598;-57
2023/06/18 06:19:58;;;;;;;12.70;11.20;;;;;;;26.49;43.42;100194.27;105395;1259;65747;-57
2023/06/18 06:22:25;;;;;;;13.40;10.80;;;;;;;26.57;43.81;100196.66;105359;1261;60637;-57
2023/06/18 06:24:52;;;;;;;12.80;11.30;;;;;;;26.66;43.14;100198.50;105204;1262;64054;-58
2023/06/18 06:27:19;;;;;;;12.60;11.20;;;;;;;26.71;42.95;100205.10;106000;1257;60526;-59
2023/06/18 06:29:46;;;;;;;14.10;11.20;;;;;;;26.74;43.21;100205.29;105348;1261;60556;-59
2023/06/18 06:32:14;;;;;;;13.20;11.20;;;;;;;26.78;42.58;100205.23;105347;1259;65238;-57
2023/06/18 06:34:40;;;;;;;12.20;10.50;;;;;;;26.81;42.27;100207.39;105710;1256;61519;-58
2023/06/18 06:37:07;;;;;;;13.40;11.00;;;;;;;26.85;42.42;100206.42;105430;1257;73118;-58
2023/06/18 06:39:35;;;;;;;14.40;11.00;;;;;;;26.92;42.38;100211.21;105440;1256;60350;-56
2023/06/18 06:42:02;;;;;;;12.90;10.80;;;;;;;27.00;42.30;100210.64;105296;1259;60587;-58
2023/06/18 06:44:30;;;;;;;12.20;10.30;;;;;;;27.10;42.70;100212.20;105256;1259;65049;-58
2023/06/18 06:47:26;;;;;;;13.10;10.30;;;;;;;27.18;42.66;100214.17;105255;1257;61628;-57
2023/06/18 06:50:15;;;;;;;12.00;10.10;;;;;;;27.26;42.10;100212.84;105306;1259;64026;-57
2023/06/18 06:53:11;;;;;;;13.50;10.60;;;;;;;27.37;41.50;100214.05;104789;1262;60655;-57
2023/06/18 06:55:38;;;;;;;16.70;11.20;;;;;;;27.44;41.48;100213.66;105325;1256;60574;-57
2023/06/18 06:58:07;;;;;;;14.10;11.60;;;;;;;27.50;41.11;100213.55;105129;1262;64956;-58
2023/06/18 07:00:33;;;;;;;11.50;10.20;;;;;;;27.55;41.06;100215.61;105201;1256;60556;-58
2023/06/18 07:03:00;;;;;;;12.20;10.90;;;;;;;27.60;41.01;100220.15;105137;1255;63889;-57
2023/06/18 07:05:28;;;;;;;13.90;10.80;;;;;;;27.67;40.72;100216.81;105248;1256;60422;-57
2023/06/18 07:07:55;;;;;;;12.90;10.90;;;;;;;27.73;40.03;100219.14;105287;1258;60562;-57
2023/06/18 07:10:22;;;;;;;11.70;10.10;;;;;;;27.77;40.05;100221.00;105218;1258;65048;-58
2023/06/18 07:12:49;;;;;;;12.50;10.90;;;;;;;27.82;40.17;100226.36;105343;1257;61954;-57
2023/06/18 07:15:16;;;;;;;17.00;10.30;;;;;;;27.86;40.18;100230.39;105222;1261;63937;-56
2023/06/18 07:17:43;;;;;;;12.60;10.20;;;;;;;27.90;39.73;100229.55;105265;1259;60357;-58
2023/06/18 07:20:10;;;;;;;12.30;11.00;;;;;;;27.95;39.91;100230.74;105263;1260;60442;-58
2023/06/18 07:22:37;;;;;;;11.10;9.90;;;;;;;28.00;40.29;100230.29;105997;1258;64957;-58
2023/06/18 07:25:04;;;;;;;15.30;11.40;;;;;;;28.06;40.37;100230.94;105203;1259;60584;-57
2023/06/18 07:27:33;;;;;;;12.40;11.10;;;;;;;28.13;40.19;100231.30;105143;1260;63965;-60
2023/06/18 07:30:00;;;;;;;12.70;11.20;;;;;;;28.18;40.64;100228.50;105449;1260;61119;-59
2023/06/18 07:32:27;;;;;;;12.70;10.80;;;;;;;28.21;40.59;100228.56;105460;1259;60597;-60
2023/06/18 07:34:54;;;;;;;14.20;11.10;;;;;;;28.25;40.24;100228.14;106359;1259;65061;-60
2023/06/18 07:37:21;;;;;;;14.30;10.60;;;;;;;28.29;39.72;100227.07;105145;1256;62179;-59
2023/06/18 07:39:48;;;;;;;13.00;10.50;;;;;;;28.36;39.88;100230.45;105281;1259;64104;-60
2023/06/18 07:42:15;;;;;;;12.20;11.00;;;;;;;28.42;40.34;100228.11;105224;1261;60520;-59
2023/06/18 07:44:42;;;;;;;11.30;10.10;;;;;;;28.45;40.39;100228.70;105256;1258;61642;-59
2023/06/18 07:47:09;;;;;;;13.50;11.50;;;;;;;28.48;40.31;100229.66;105183;1259;65210;-59
2023/06/18 07:49:36;;;;;;;11.70;10.60;;;;;;;28.53;40.27;100226.50;105281;1260;61384;-60
2023/06/18 07:52:03;;;;;;;13.40;10.80;;;;;;;28.59;39.90;100226.23;105277;1261;64006;-59
2023/06/18 07:54:34;;;;;;;12.20;9.90;;;;;;;28.65;40.14;100229.65;106805;1259;59308;-60
2023/06/18 07:57:02;;;;;;;14.40;10.50;;;;;;;28.73;39.44;100229.67;105347;1256;60617;-60
2023/06/18 07:59:28;;;;;;;13.70;10.70;;;;;;;28.78;39.22;100231.85;105357;1260;65105;-59
2023/06/18 08:01:56;;;;;;;11.60;10.40;;;;;;;28.82;39.35;100231.59;105236;1259;62158;-58
2023/06/18 08:04:23;;;;;;;14.20;10.30;;;;;;;28.91;39.15;100232.20;105379;1259;64130;-59
2023/06/18 08:06:50;;;;;;;12.70;10.20;;;;;;;28.95;38.48;100233.70;105464;1257;60565;-58
2023/06/18 08:09:17;;;;;;;13.50;10.80;;;;;;;28.96;38.56;100229.62;105566;1254;60472;-58
2023/06/18 08:11:44;;;;;;;13.10;10.10;;;;;;;28.99;38.91;100228.16;105214;1259;65266;-57
2023/06/18 08:14:11;;;;;;;12.40;9.90;;;;;;;29.06;38.68;100233.06;105361;1260;61375;-59
2023/06/18 08:16:38;;;;;;;11.40;10.20;;;;;;;29.14;38.70;100236.56;105359;1260;64021;-60
2023/06/18 08:19:05;;;;;;;12.50;10.50;;;;;;;29.24;39.11;100238.11;105091;1259;60582;-58
2023/06/18 08:21:33;;;;;;;10.90;9.70;;;;;;;29.34;39.27;100237.16;105216;1256;60492;-58
2023/06/18 08:24:00;;;;;;;16.80;10.50;;;;;;;29.47;39.26;100237.66;105340;1258;64994;-57
2023/06/18 08:26:26;;;;;;;11.30;9.60;;;;;;;29.58;38.83;100239.25;105366;1259;61640;-59
2023/06/18 08:28:53;;;;;;;10.90;9.60;;;;;;;29.66;38.09;100238.04;105422;1260;64079;-57
2023/06/18 08:31:21;;;;;;;12.00;9.20;;;;;;;29.75;37.99;100237.73;105772;1255;60486;-57
2023/06/18 08:33:49;;;;;;;14.60;9.50;;;;;;;29.81;37.13;100238.73;105156;1257;60924;-58
2023/06/18 08:36:18;;;;;;;11.20;9.60;;;;;;;29.84;37.14;100238.65;105491;1261;65757;-58
2023/06/18 08:38:44;;;;;;;10.80;9.60;;;;;;;29.87;37.04;100237.61;105253;1260;61682;-58
2023/06/18 08:41:11;;;;;;;10.90;9.60;;;;;;;29.90;36.72;100235.58;105334;1260;64361;-59
2023/06/18 08:43:38;;;;;;;12.40;9.10;;;;;;;29.92;37.00;100230.77;105337;1260;60520;-59
2023/06/18 08:46:13;;;;;;;11.30;9.50;;;;;;;29.99;37.28;100235.73;105779;1259;60466;-59
2023/06/18 08:48:58;;;;;;;10.40;9.10;;;;;;;30.06;36.30;100234.70;105259;1261;64011;-58
2023/06/18 08:51:25;;;;;;;12.10;8.40;;;;;;;30.10;35.95;100233.95;105269;1260;61417;-58
2023/06/18 08:54:04;;;;;;;11.70;9.30;;;;;;;30.15;35.62;100234.04;105397;1260;64597;-57
2023/06/18 08:56:32;;;;;;;12.70;9.00;;;;;;;30.21;35.15;100236.42;105410;1258;60454;-57
2023/06/18 08:58:58;;;;;;;10.00;8.70;;;;;;;30.25;34.43;100233.36;105114;1262;60586;-58
2023/06/18 09:01:25;;;;;;;10.70;8.40;;;;;;;30.25;34.81;100231.52;108864;1262;65042;-58
2023/06/18 09:03:53;;;;;;;12.80;8.90;;;;;;;30.26;34.56;100228.36;108921;1257;61487;-59
2023/06/18 09:06:21;;;;;;;8.40;6.90;;;;;;;30.29;33.32;100226.73;109104;1255;63721;-59
2023/06/18 09:08:47;;;;;;;8.80;7.10;;;;;;;30.35;32.00;100222.95;105261;1258;60558;-60
2023/06/18 09:11:15;;;;;;;8.60;7.40;;;;;;;30.43;32.79;100219.92;105071;1260;60445;-58
2023/06/18 09:13:42;;;;;;;10.00;8.00;;;;;;;30.51;32.93;100216.80;106649;1260;65015;-58
2023/06/18 09:16:09;;;;;;;9.20;7.50;;;;;;;30.62;32.76;100218.61;105391;1257;61464;-59
2023/06/18 09:18:36;;;;;;;8.50;7.60;;;;;;;30.70;31.98;100213.90;105372;1262;63829;-57
2023/06/18 09:21:03;;;;;;;9.90;7.60;;;;;;;30.74;31.77;100214.85;105359;1260;60449;-59
2023/06/18 09:23:30;;;;;;;9.80;7.80;;;;;;;30.76;31.81;100215.67;105412;1260;60688;-57
2023/06/18 09:25:57;;;;;;;11.10;7.20;;;;;;;30.84;31.94;100218.08;105247;1257;64886;-60
2023/06/18 09:28:25;;;;;;;8.00;7.20;;;;;;;30.93;31.72;100217.82;105495;1260;60368;-60
2023/06/18 09:30:54;;;;;;;8.90;7.40;;;;;;;30.99;31.39;100213.96;105412;1259;63775;-59
2023/06/18 09:33:28;;;;;;;9.80;7.40;;;;;;;31.00;30.48;100211.41;105300;1262;60564;-57
2023/06/18 09:36:13;;;;;;;9.00;7.00;;;;;;;30.99;30.88;100207.21;105443;1259;60473;-58
2023/06/18 09:38:41;;;;;;;9.10;8.00;;;;;;;31.04;31.02;100204.63;105500;1261;65071;-59
2023/06/18 09:41:16;;;;;;;8.50;7.20;;;;;;;31.11;31.17;100202.27;105435;1258;61565;-60
2023/06/18 09:43:45;;;;;;;8.90;7.10;;;;;;;31.18;30.32;100204.05;105210;1260;64079;-56
2023/06/18 09:46:12;;;;;;;9.20;7.20;;;;;;;31.27;30.27;100203.05;106919;1257;60478;-58
2023/06/18 09:48:44;;;;;;;9.80;6.60;;;;;;;31.36;28.92;100198.20;105243;1257;60809;-58
2023/06/18 09:51:14;;;;;;;8.80;6.90;;;;;;;31.37;27.02;100196.85;105746;1257;65600;-59
2023/06/18 09:53:40;;;;;;;8.40;6.70;;;;;;;31.34;26.98;100194.34;105263;1258;61585;-58
2023/06/18 09:56:15;;;;;;;9.50;7.30;;;;;;;31.35;26.27;100187.81;105137;1258;64302;-59
2023/06/18 09:58:49;;;;;;;8.60;6.70;;;;;;;31.39;26.54;100189.84;105254;1257;60466;-65
2023/06/18 10:01:18;;;;;;;8.50;6.60;;;;;;;31.45;28.26;100190.18;105421;1260;60450;-60
2023/06/18 10:03:45;;;;;;;8.00;7.00;;;;;;;31.50;27.65;100189.29;105348;1256;64908;-61
2023/06/18 10:06:16;;;;;;;7.40;6.30;;;;;;;31.55;27.27;100187.04;105350;1260;61768;-59
2023/06/18 10:08:45;;;;;;;8.40;6.70;;;;;;;31.65;27.01;100186.20;106234;1258;64060;-60
2023/06/18 10:11:13;;;;;;;12.60;6.70;;;;;;;31.75;26.16;100185.14;105505;1261;60771;-59
2023/06/18 10:14:02;;;;;;;8.00;6.50;;;;;;;31.85;25.68;100179.39;105220;1259;60584;-57
2023/06/18 10:16:32;;;;;;;8.30;7.40;;;;;;;31.91;26.62;100182.12;105319;1257;63842;-58
2023/06/18 10:19:06;;;;;;;7.80;6.60;;;;;;;31.92;26.32;100181.89;105217;1258;61824;-60
2023/06/18 10:21:35;;;;;;;9.20;7.70;;;;;;;31.97;26.51;100183.33;105167;1263;64040;-63
2023/06/18 10:25:04;;;;;;;8.60;7.00;;;;;;;32.02;26.51;100185.55;105169;1260;60485;-62
2023/06/18 10:27:32;;;;;;;8.90;7.40;;;;;;;32.08;27.21;100183.63;105269;1257;60447;-62
2023/06/18 10:30:00;;;;;;;8.00;6.90;;;;;;;32.09;27.72;100184.39;105466;1259;65171;-58
2023/06/18 10:32:27;;;;;;;9.60;6.60;;;;;;;32.10;27.31;100183.85;105182;1260;60543;-57
2023/06/18 10:34:56;;;;;;;8.20;7.00;;;;;;;32.08;27.79;100182.54;105175;1260;64331;-57
2023/06/18 10:37:22;;;;;;;9.50;7.50;;;;;;;32.08;27.47;100177.76;105301;1260;61601;-57
2023/06/18 10:39:50;;;;;;;7.60;6.40;;;;;;;32.02;26.41;100176.91;105136;1261;60482;-63
2023/06/18 10:42:18;;;;;;;7.90;6.60;;;;;;;31.97;26.45;100173.75;105396;1260;64876;-56
2023/06/18 10:44:48;;;;;;;8.80;7.50;;;;;;;32.00;27.26;100174.51;105281;1257;61442;-57
2023/06/18 10:47:22;;;;;;;8.00;7.20;;;;;;;32.07;27.74;100177.96;105290;1257;65251;-57
2023/06/18 10:50:02;;;;;;;;;;;;;;;32.13;28.49;100179.29;105412;1254;60888;-58
2023/06/18 10:52:30;;;;;;;9.50;7.30;;;;;;;32.19;27.75;100179.55;105754;1257;60609;-57
2023/06/18 10:55:10;;;;;;;7.40;5.80;;;;;;;32.25;28.32;100178.79;105392;1258;65113;-58
2023/06/18 10:57:38;;;;;;;8.50;7.10;;;;;;;32.34;27.96;100176.34;105562;1258;61638;-58
2023/06/18 11:00:25;;;;;;;8.20;6.40;;;;;;;32.44;27.59;100174.09;105318;1260;64057;-60
2023/06/18 11:03:00;;;;;;;9.50;6.80;;;;;;;32.55;26.75;100175.61;105035;1258;60362;-57
2023/06/18 11:05:36;;;;;;;8.80;6.30;;;;;;;32.65;26.18;100175.14;105713;1257;60502;-57
2023/06/18 11:08:08;;;;;;;8.00;6.40;;;;;;;32.75;26.26;100179.37;105121;1260;65168;-59
2023/06/18 11:10:40;;;;;;;7.90;6.40;;;;;;;32.87;26.36;100173.18;105167;1260;61695;-59
2023/06/18 11:13:09;;;;;;;8.20;6.30;;;;;;;32.99;26.55;100172.44;105616;1259;63993;-60
2023/06/18 11:15:57;;;;;;;8.60;7.00;;;;;;;33.11;25.88;100171.75;105342;1255;60517;-58